Time;durP1;ratioP1;P1;durP2;ratioP2;P2;SDS_P1;SDS_P2;PMS_P1;PMS_P2;Temp;Humidity;BMP_temperature;BMP_pressure;BME280_temperature;BME280_humidity;BME280_pressure;Samples;Min_cycle;Max_cycle;Signal;HPM_P1;HPM_P2
2021/12/19 00:00:09;;;;;;;7.13;1.40;;;;;;;6.88;89.66;103306.16;2079811;28;44447;-65
2021/12/19 00:01:27;;;;;;;8.88;1.63;;;;;;;6.88;89.98;103307.91;2072254;28;20047;-65
2021/12/19 00:02:46;;;;;;;10.52;2.55;;;;;;;6.92;90.01;103307.16;2073263;28;45396;-65
2021/12/19 00:09:07;;;;;;;6.32;1.50;;;;;;;6.95;89.28;103299.25;2080204;28;45450;-65
2021/12/19 00:10:08;;;;;;;9.30;1.50;;;;;;;6.95;88.43;103301.03;2079985;28;46589;-65
2021/12/19 00:11:10;;;;;;;10.82;1.50;;;;;;;6.94;89.42;103299.22;2079914;28;42094;-65
2021/12/19 00:12:12;;;;;;;13.07;1.67;;;;;;;6.92;88.82;103299.16;2078443;28;45580;-65
2021/12/19 00:13:14;;;;;;;6.80;1.65;;;;;;;6.94;89.03;103302.75;2079901;28;29467;-65
2021/12/19 00:14:18;;;;;;;6.93;1.50;;;;;;;6.95;89.45;103301.03;2088409;28;45521;-65
2021/12/19 00:15:19;;;;;;;9.07;2.10;;;;;;;6.91;89.44;103308.03;2087788;28;46667;-65
2021/12/19 00:16:22;;;;;;;8.38;1.58;;;;;;;6.91;89.39;103300.03;2088514;28;41968;-65
2021/12/19 00:17:24;;;;;;;11.63;2.08;;;;;;;6.92;89.55;103298.25;2088590;28;45551;-65
2021/12/19 00:18:25;;;;;;;11.70;1.52;;;;;;;6.91;89.83;103293.78;2088546;28;46514;-65
2021/12/19 00:19:27;;;;;;;7.82;1.48;;;;;;;6.95;89.88;103291.28;2079833;28;35300;-66
2021/12/19 00:20:29;;;;;;;8.73;1.85;;;;;;;6.95;88.75;103285.94;2079481;28;45630;-65
2021/12/19 00:21:51;;;;;;;8.27;1.67;;;;;;;6.95;88.51;103293.03;2088781;28;20045;-65
2021/12/19 00:22:52;;;;;;;8.52;1.98;;;;;;;6.97;88.66;103286.00;2088499;28;44182;-65
2021/12/19 00:23:55;;;;;;;8.25;1.60;;;;;;;6.99;88.19;103278.94;2079202;28;44943;-68
2021/12/19 00:24:58;;;;;;;7.60;1.70;;;;;;;6.96;88.42;103274.41;2080212;28;42317;-65
2021/12/19 00:26:00;;;;;;;8.27;1.58;;;;;;;7.00;88.93;103278.06;2088259;28;45633;-66
2021/12/19 00:27:04;;;;;;;9.30;1.35;;;;;;;7.00;88.86;103272.75;2089081;28;27175;-65
2021/12/19 00:28:06;;;;;;;9.85;1.75;;;;;;;6.98;88.82;103270.06;2088241;28;43892;-65
2021/12/19 00:29:08;;;;;;;9.68;1.40;;;;;;;6.98;88.58;103277.13;2079387;28;46670;-65
2021/12/19 00:30:10;;;;;;;10.32;1.70;;;;;;;6.98;88.48;103270.06;2079341;28;42322;-65
2021/12/19 00:31:12;;;;;;;11.20;1.30;;;;;;;7.00;88.87;103267.41;2088365;28;44528;-65
2021/12/19 00:32:14;;;;;;;9.20;1.60;;;;;;;7.02;89.02;103268.38;2087777;28;44621;-64
2021/12/19 00:33:16;;;;;;;8.13;2.13;;;;;;;6.99;88.71;103258.53;2088115;28;45448;-65
2021/12/19 00:34:18;;;;;;;8.35;1.45;;;;;;;7.00;89.24;103262.09;2088013;28;44598;-65
2021/12/19 00:35:20;;;;;;;6.32;1.30;;;;;;;6.98;88.83;103258.47;2079963;28;26222;-65
2021/12/19 00:36:24;;;;;;;9.82;1.85;;;;;;;6.97;88.37;103254.03;2070050;28;45212;-64
2021/12/19 00:37:27;;;;;;;4.93;1.20;;;;;;;6.98;89.55;103258.47;2063645;28;44379;-65
2021/12/19 00:38:30;;;;;;;8.93;1.85;;;;;;;6.98;89.26;103267.41;2071484;28;44107;-65
2021/12/19 00:39:32;;;;;;;11.15;1.77;;;;;;;6.95;88.75;103258.41;2062972;28;46206;-65
2021/12/19 00:40:34;;;;;;;9.57;1.52;;;;;;;6.97;88.73;103264.69;2063966;28;29568;-65
2021/12/19 00:41:36;;;;;;;8.30;1.35;;;;;;;6.95;88.86;103261.97;2071493;28;45387;-64
2021/12/19 00:42:37;;;;;;;8.43;1.48;;;;;;;6.95;89.12;103255.75;2072736;28;20097;-64
2021/12/19 00:44:42;;;;;;;8.50;1.73;;;;;;;6.95;88.66;103256.66;2063422;28;45804;-65
2021/12/19 00:45:47;;;;;;;9.85;1.60;;;;;;;6.92;89.07;103260.97;2071533;28;29904;-64
2021/12/19 00:46:52;;;;;;;9.63;1.70;;;;;;;6.93;88.96;103265.44;2071759;28;43899;-65
2021/12/19 00:47:54;;;;;;;7.22;1.70;;;;;;;6.94;89.55;103259.25;2071206;28;45134;-64
2021/12/19 00:48:56;;;;;;;9.38;1.55;;;;;;;6.92;88.50;103258.31;2071794;28;42085;-64
2021/12/19 00:49:58;;;;;;;9.18;1.77;;;;;;;6.94;88.65;103261.91;2071529;28;44464;-65
2021/12/19 00:51:22;;;;;;;10.65;1.52;;;;;;;6.94;88.98;103257.50;2071592;28;32375;-64
2021/12/19 00:52:23;;;;;;;6.97;1.50;;;;;;;6.95;89.34;103255.75;2062735;28;43172;-65
2021/12/19 00:53:25;;;;;;;8.25;1.88;;;;;;;6.95;88.75;103256.66;2063837;28;46523;-65
2021/12/19 00:54:27;;;;;;;8.98;2.00;;;;;;;6.96;89.07;103250.44;2071640;28;43479;-64
2021/12/19 00:55:30;;;;;;;7.35;1.55;;;;;;;6.97;88.84;103246.03;2071541;28;43986;-64
2021/12/19 00:56:31;;;;;;;6.60;1.48;;;;;;;6.96;88.63;103253.09;2063015;28;44712;-65
2021/12/19 00:57:33;;;;;;;7.25;1.70;;;;;;;6.96;88.66;103247.78;2063034;28;45424;-65
2021/12/19 00:58:35;;;;;;;10.85;2.13;;;;;;;6.96;88.27;103245.13;2071255;28;46335;-65
2021/12/19 00:59:39;;;;;;;11.25;1.58;;;;;;;6.94;87.83;103243.28;2071813;28;42137;-65
2021/12/19 01:00:41;;;;;;;10.63;1.90;;;;;;;7.00;88.47;103243.44;2071685;28;44431;-65
2021/12/19 01:01:45;;;;;;;5.75;1.25;;;;;;;7.00;88.78;103239.03;2071484;28;46249;-64
2021/12/19 01:02:50;;;;;;;7.43;2.10;;;;;;;6.97;88.14;103232.72;2072066;28;45358;-65
2021/12/19 01:03:52;;;;;;;7.95;1.48;;;;;;;6.99;88.03;103234.56;2071153;28;44282;-65
2021/12/19 01:04:56;;;;;;;7.05;1.65;;;;;;;7.00;87.88;103227.47;2071713;28;46021;-64
2021/12/19 01:05:58;;;;;;;7.07;1.48;;;;;;;6.99;87.63;103233.66;2071498;28;44377;-65
2021/12/19 01:07:01;;;;;;;8.43;1.63;;;;;;;6.99;87.96;103239.88;2077394;28;44963;-64
2021/12/19 01:08:04;;;;;;;9.25;1.67;;;;;;;6.98;87.78;103232.78;2080116;28;31193;-65
2021/12/19 01:09:08;;;;;;;9.00;1.30;;;;;;;7.00;88.53;103232.78;2079867;28;45820;-65
2021/12/19 01:10:10;;;;;;;12.60;1.90;;;;;;;6.97;88.05;103232.72;2079749;28;44402;-65
2021/12/19 01:11:11;;;;;;;9.90;2.17;;;;;;;6.97;88.60;103230.06;2079914;28;45446;-65
2021/12/19 01:12:13;;;;;;;12.63;1.65;;;;;;;6.96;88.72;103230.91;2079438;28;45023;-65
2021/12/19 01:13:17;;;;;;;7.18;1.67;;;;;;;6.97;88.35;103227.41;2079549;28;44740;-65
2021/12/19 01:14:19;;;;;;;7.28;1.73;;;;;;;6.95;88.56;103234.44;2079864;28;44178;-65
2021/12/19 01:15:23;;;;;;;11.18;1.92;;;;;;;6.94;88.80;103230.84;2079931;28;44400;-64
2021/12/19 01:16:25;;;;;;;11.50;1.80;;;;;;;6.94;nan;103225.53;2079374;28;45561;-64
2021/12/19 01:17:27;;;;;;;7.22;1.50;;;;;;;6.94;88.52;103221.97;2079709;28;45150;-64
2021/12/19 01:18:31;;;;;;;10.15;1.95;;;;;;;6.93;88.68;103217.50;2079168;28;43566;-64
2021/12/19 01:19:35;;;;;;;10.90;1.77;;;;;;;6.94;88.74;103213.97;2070873;28;45410;-64
2021/12/19 01:20:41;;;;;;;11.13;2.00;;;;;;;6.92;88.72;103221.03;2071778;28;45767;-64
2021/12/19 01:21:44;;;;;;;10.77;1.40;;;;;;;6.93;89.03;103209.50;2079740;28;45503;-65
2021/12/19 01:22:46;;;;;;;6.07;1.63;;;;;;;6.93;88.92;103214.81;2070500;28;45264;-64
2021/12/19 01:23:48;;;;;;;6.72;1.67;;;;;;;6.93;89.09;103210.44;2070983;28;44378;-64
2021/12/19 01:24:50;;;;;;;11.75;2.20;;;;;;;6.93;89.15;103215.75;2071064;28;45782;-64
2021/12/19 01:25:52;;;;;;;12.88;2.10;;;;;;;6.92;89.10;103203.28;2070876;28;45480;-64
2021/12/19 01:26:53;;;;;;;8.23;1.95;;;;;;;6.92;89.22;103205.06;2079651;28;42132;-64
2021/12/19 01:27:56;;;;;;;7.43;2.05;;;;;;;6.97;89.79;103206.97;2079671;28;30883;-63
2021/12/19 01:28:58;;;;;;;11.55;2.00;;;;;;;6.95;89.37;103205.16;2079911;28;44651;-64
2021/12/19 01:30:00;;;;;;;9.23;2.08;;;;;;;6.97;89.76;103204.31;2079214;28;45297;-64
2021/12/19 01:31:05;;;;;;;11.90;1.88;;;;;;;6.96;88.87;103204.28;2079870;28;45150;-64
2021/12/19 01:32:06;;;;;;;6.53;1.73;;;;;;;6.94;88.44;103198.91;2079615;28;43635;-63
2021/12/19 01:33:08;;;;;;;5.50;1.30;;;;;;;6.94;88.65;103190.91;2079114;28;44311;-64
2021/12/19 01:34:13;;;;;;;4.47;1.50;;;;;;;6.95;88.98;103203.38;2079907;28;44970;-64
2021/12/19 01:35:18;;;;;;;7.38;1.45;;;;;;;6.94;88.75;103200.66;2080992;28;43058;-64
2021/12/19 01:36:20;;;;;;;8.50;1.40;;;;;;;6.95;88.78;103197.16;2080776;28;46642;-64
2021/12/19 01:37:22;;;;;;;9.80;1.98;;;;;;;6.92;88.54;103197.06;2081299;28;42340;-64
2021/12/19 01:38:23;;;;;;;9.07;1.90;;;;;;;6.93;88.87;103194.44;2082070;28;27307;-64
2021/12/19 01:39:25;;;;;;;9.63;1.80;;;;;;;6.93;88.45;103196.19;2072275;28;46119;-64
2021/12/19 01:40:27;;;;;;;12.00;1.52;;;;;;;6.93;89.44;103185.53;2072386;28;43394;-64
2021/12/19 01:41:29;;;;;;;8.63;1.67;;;;;;;6.90;89.03;103189.03;2081753;28;20042;-64
2021/12/19 01:42:40;;;;;;;5.80;1.30;;;;;;;6.91;88.89;103203.22;2081147;28;42312;-64
2021/12/19 01:43:41;;;;;;;10.43;1.20;;;;;;;6.90;89.28;103190.78;2081224;28;38087;-65
2021/12/19 01:44:44;;;;;;;6.80;1.70;;;;;;;6.92;89.37;103197.97;2081021;28;45938;-64
2021/12/19 01:45:47;;;;;;;11.23;1.58;;;;;;;6.91;89.12;103188.19;2080893;28;45453;-64
2021/12/19 01:46:49;;;;;;;6.60;1.27;;;;;;;6.92;89.49;103191.75;2081012;28;45142;-64
2021/12/19 01:47:51;;;;;;;6.82;1.40;;;;;;;6.92;89.71;103194.41;2081516;28;43690;-65
2021/12/19 01:48:53;;;;;;;6.68;1.30;;;;;;;6.88;89.33;103185.41;2081259;28;31540;-64
2021/12/19 01:49:55;;;;;;;7.75;1.20;;;;;;;6.87;89.34;103192.53;2080738;28;46487;-64
2021/12/19 01:50:57;;;;;;;8.65;1.40;;;;;;;6.86;89.44;103193.34;2081247;28;43537;-64
2021/12/19 01:51:59;;;;;;;7.30;1.20;;;;;;;6.90;89.75;103185.47;2080845;28;45683;-64
2021/12/19 01:53:04;;;;;;;11.63;1.50;;;;;;;6.87;89.24;103184.53;2080744;28;45646;-64
2021/12/19 01:54:06;;;;;;;10.18;1.23;;;;;;;6.90;89.89;103193.47;2072204;28;31900;-63
2021/12/19 01:55:09;;;;;;;9.15;1.20;;;;;;;6.85;88.84;103186.22;2072865;28;46550;-63
2021/12/19 01:56:10;;;;;;;5.10;1.17;;;;;;;6.85;89.16;103188.88;2071568;28;42320;-64
2021/12/19 01:57:13;;;;;;;5.30;1.13;;;;;;;6.87;88.78;103184.53;2072534;28;45624;-64
2021/12/19 01:58:16;;;;;;;8.65;1.05;;;;;;;6.87;89.17;103192.53;2072867;28;20827;-64
2021/12/19 01:59:23;;;;;;;5.68;1.17;;;;;;;6.86;88.60;103182.72;2073812;28;20787;-64
2021/12/19 02:00:38;;;;;;;5.97;1.38;;;;;;;6.88;88.78;103183.66;2081113;28;30108;-63
2021/12/19 02:01:50;;;;;;;7.70;0.80;;;;;;;6.86;88.24;103177.38;2072164;28;42652;-63
2021/12/19 02:02:53;;;;;;;9.93;1.40;;;;;;;6.86;88.29;103182.72;2074904;28;44964;-64
2021/12/19 02:03:56;;;;;;;8.73;1.20;;;;;;;6.87;88.29;103187.19;2080845;28;46457;-64
2021/12/19 02:04:58;;;;;;;7.20;1.10;;;;;;;6.87;88.30;103179.22;2080687;28;45708;-64
2021/12/19 02:06:01;;;;;;;8.05;1.60;;;;;;;6.84;88.77;103184.44;2080884;28;46574;-64
2021/12/19 02:07:03;;;;;;;10.95;1.27;;;;;;;6.84;88.79;103181.78;2072196;28;43500;-64
2021/12/19 02:08:07;;;;;;;10.93;1.42;;;;;;;6.89;88.70;103181.88;2071829;28;44349;-64
2021/12/19 02:09:10;;;;;;;5.55;0.85;;;;;;;6.91;89.03;103179.25;2073716;28;20990;-64
2021/12/19 02:10:16;;;;;;;9.23;1.20;;;;;;;6.87;88.35;103187.19;2072292;28;46524;-64
2021/12/19 02:11:18;;;;;;;7.40;1.10;;;;;;;6.86;88.37;103185.38;2071819;28;44042;-64
2021/12/19 02:12:20;;;;;;;10.45;1.27;;;;;;;6.88;89.46;103185.41;2072879;28;31550;-64
2021/12/19 02:13:22;;;;;;;6.18;1.02;;;;;;;6.88;88.75;103185.41;2072822;28;43888;-64
2021/12/19 02:14:23;;;;;;;7.57;1.33;;;;;;;6.88;88.79;103185.41;2072627;28;46443;-64
2021/12/19 02:15:28;;;;;;;5.80;1.05;;;;;;;6.88;89.21;103183.66;2072358;28;43554;-64
2021/12/19 02:16:33;;;;;;;8.57;1.55;;;;;;;6.89;88.60;103187.22;2071927;28;45491;-64
2021/12/19 02:17:34;;;;;;;7.30;1.50;;;;;;;6.90;89.18;103173.06;2072110;28;35957;-64
2021/12/19 02:18:37;;;;;;;8.73;1.50;;;;;;;6.95;88.80;103181.19;2072186;28;45456;-64
2021/12/19 02:19:40;;;;;;;8.85;1.77;;;;;;;6.94;88.33;103184.69;2073351;28;30661;-65
2021/12/19 02:20:50;;;;;;;9.98;1.42;;;;;;;6.93;88.68;103185.53;2072834;28;43375;-64
2021/12/19 02:21:52;;;;;;;6.40;1.55;;;;;;;6.93;88.69;103186.47;2073554;28;45480;-65
2021/12/19 02:22:54;;;;;;;7.15;1.25;;;;;;;6.98;88.80;103178.59;2072681;28;44582;-63
2021/12/19 02:24:02;;;;;;;8.65;1.65;;;;;;;6.95;88.20;103165.19;2072463;28;45088;-64
2021/12/19 02:25:06;;;;;;;5.65;1.38;;;;;;;6.95;88.67;103167.88;2072972;28;32558;-64
2021/12/19 02:26:07;;;;;;;9.90;1.70;;;;;;;6.94;88.50;103163.38;2071958;28;43682;-64
2021/12/19 02:27:09;;;;;;;6.63;1.42;;;;;;;6.96;88.91;103161.66;2071760;28;44505;-63
2021/12/19 02:28:13;;;;;;;10.95;1.90;;;;;;;6.92;88.23;103158.00;2072396;28;46015;-64
2021/12/19 02:29:16;;;;;;;8.10;1.90;;;;;;;6.91;88.19;103156.22;2072360;28;44173;-63
2021/12/19 02:30:18;;;;;;;9.57;1.75;;;;;;;6.92;87.83;103159.78;2072828;28;34281;-64
2021/12/19 02:31:21;;;;;;;10.70;1.55;;;;;;;6.92;88.01;103165.09;2072845;28;31252;-64
2021/12/19 02:32:25;;;;;;;10.52;1.70;;;;;;;6.92;88.75;103157.13;2072709;28;45817;-64
2021/12/19 02:33:30;;;;;;;5.25;1.58;;;;;;;6.93;88.52;103172.22;2072815;28;30942;-64
2021/12/19 02:34:38;;;;;;;6.80;2.00;;;;;;;6.94;88.80;103166.03;2071801;28;42463;-64
2021/12/19 02:35:46;;;;;;;8.02;2.10;;;;;;;6.95;88.18;103165.19;2071787;28;45719;-64
2021/12/19 02:37:11;;;;;;;7.38;1.92;;;;;;;6.93;88.43;103164.22;2077635;28;28054;-64
2021/12/19 02:39:06;;;;;;;9.10;1.67;;;;;;;6.94;88.40;103158.06;2080613;28;45294;-64
2021/12/19 02:48:32;;;;;;;11.00;3.40;;;;;;;6.94;88.19;103155.41;2080292;28;44082;-64
2021/12/19 02:49:35;;;;;;;14.98;3.75;;;;;;;6.97;88.48;103150.16;2071783;28;48001;-64
2021/12/19 02:50:46;;;;;;;12.63;4.05;;;;;;;6.94;88.22;103158.94;2072089;28;42880;-64
2021/12/19 02:51:48;;;;;;;9.02;3.35;;;;;;;6.95;88.06;103157.22;2080450;28;44911;-64
2021/12/19 02:52:51;;;;;;;12.68;3.97;;;;;;;6.94;88.44;103163.38;2080146;28;42526;-64
2021/12/19 02:53:54;;;;;;;10.55;3.75;;;;;;;6.93;88.36;103145.59;2080477;28;43317;-64
2021/12/19 02:54:56;;;;;;;13.50;4.20;;;;;;;6.92;88.51;103157.13;2080126;28;45882;-64
2021/12/19 02:56:01;;;;;;;11.23;4.30;;;;;;;6.92;88.60;103150.03;2080650;28;44083;-63
2021/12/19 02:57:03;;;;;;;14.23;4.22;;;;;;;6.91;88.78;103142.91;2072067;28;46618;-65
2021/12/19 02:58:07;;;;;;;11.07;4.47;;;;;;;6.93;89.10;103142.91;2073760;28;20939;-64
2021/12/19 02:59:12;;;;;;;12.85;5.13;;;;;;;6.93;88.87;103145.59;2080497;28;45278;-64
2021/12/19 03:00:20;;;;;;;13.95;4.60;;;;;;;6.94;88.89;103150.06;2080474;28;33453;-66
2021/12/19 03:01:22;;;;;;;12.57;4.97;;;;;;;6.92;88.78;103138.47;2071952;28;43309;-64
2021/12/19 03:02:24;;;;;;;12.75;4.78;;;;;;;6.95;89.06;103135.91;2073055;28;29385;-64
2021/12/19 03:03:29;;;;;;;14.70;5.75;;;;;;;6.93;88.55;103145.59;2079320;28;45150;-64
2021/12/19 03:04:30;;;;;;;14.88;5.50;;;;;;;6.93;88.68;103145.59;2080064;28;45512;-64
2021/12/19 03:05:33;;;;;;;13.27;5.28;;;;;;;6.91;88.58;103144.66;2080518;28;45374;-64
2021/12/19 03:06:35;;;;;;;13.73;5.85;;;;;;;6.91;88.67;103141.97;2080256;28;42365;-65
2021/12/19 03:07:41;;;;;;;15.02;6.07;;;;;;;6.92;89.05;103134.03;2081059;28;28602;-64
2021/12/19 03:08:46;;;;;;;15.52;6.07;;;;;;;6.91;88.62;103136.66;2080650;28;43729;-64
2021/12/19 03:10:07;;;;;;;24.10;6.57;;;;;;;6.90;88.31;103134.88;2080621;28;45054;-64
2021/12/19 03:11:51;;;;;;;18.45;7.38;;;;;;;6.89;87.91;103131.28;2080514;28;46286;-63
2021/12/19 03:13:03;;;;;;;15.05;6.35;;;;;;;6.92;88.47;103127.81;2080302;28;44297;-64
2021/12/19 03:18:10;;;;;;;15.85;7.35;;;;;;;6.92;87.69;103120.72;2071653;28;32005;-64
2021/12/19 03:19:12;;;;;;;17.63;7.50;;;;;;;6.91;88.11;103131.34;2075072;28;42180;-64
2021/12/19 03:20:15;;;;;;;20.02;7.35;;;;;;;6.92;87.75;103130.50;2080539;28;44183;-64
2021/12/19 03:21:19;;;;;;;16.08;7.68;;;;;;;6.94;88.13;103128.75;2080400;28;45997;-64
2021/12/19 03:22:21;;;;;;;20.60;7.97;;;;;;;6.92;88.20;103141.13;2080652;28;45312;-66
2021/12/19 03:23:23;;;;;;;17.58;8.45;;;;;;;6.90;87.83;103129.56;2080393;28;45418;-66
2021/12/19 03:24:25;;;;;;;17.08;7.95;;;;;;;6.93;88.17;103126.94;2080332;28;46024;-65
2021/12/19 03:25:29;;;;;;;21.65;8.13;;;;;;;6.91;88.45;103126.00;2080564;28;45386;-66
2021/12/19 03:26:33;;;;;;;17.13;9.27;;;;;;;6.91;88.17;103123.34;2080793;28;31910;-66
2021/12/19 03:27:34;;;;;;;22.17;8.30;;;;;;;6.90;88.22;103124.22;2080474;28;42309;-64
2021/12/19 03:28:37;;;;;;;21.20;9.07;;;;;;;6.88;88.02;103121.50;2079828;28;45773;-66
2021/12/19 03:29:39;;;;;;;18.70;9.30;;;;;;;6.86;88.20;103118.81;2080392;28;44801;-66
2021/12/19 03:30:44;;;;;;;20.80;9.65;;;;;;;6.88;88.00;103122.41;2080326;28;44294;-66
2021/12/19 03:31:48;;;;;;;21.48;9.18;;;;;;;6.88;88.02;103116.19;2080665;28;34408;-66
2021/12/19 03:32:50;;;;;;;18.88;8.65;;;;;;;6.89;87.65;103120.63;2080481;28;42538;-66
2021/12/19 03:33:51;;;;;;;20.20;8.52;;;;;;;6.89;88.25;103120.63;2079711;28;45656;-66
2021/12/19 03:34:53;;;;;;;20.65;8.60;;;;;;;6.92;88.23;103120.72;2080209;28;45833;-66
2021/12/19 03:35:55;;;;;;;15.50;8.63;;;;;;;6.88;87.94;103116.19;2079761;28;44100;-64
2021/12/19 03:36:59;;;;;;;16.10;7.50;;;;;;;6.90;88.13;103117.13;2080901;28;20824;-66
2021/12/19 03:38:05;;;;;;;17.27;7.93;;;;;;;6.88;87.41;103106.44;2080358;28;34774;-64
2021/12/19 03:39:15;;;;;;;19.23;7.93;;;;;;;6.91;87.81;103110.94;2080443;28;45627;-66
2021/12/19 03:40:23;;;;;;;21.38;8.35;;;;;;;6.88;87.79;103111.75;2080999;28;22828;-65
2021/12/19 03:41:33;;;;;;;19.25;7.82;;;;;;;6.87;87.48;103109.97;2080341;28;44266;-64
2021/12/19 03:42:46;;;;;;;16.80;6.82;;;;;;;6.86;87.33;103107.25;2079985;28;45031;-65
2021/12/19 03:43:48;;;;;;;14.45;6.38;;;;;;;6.84;87.61;103109.88;2071590;28;43873;-64
2021/12/19 03:44:50;;;;;;;21.60;5.93;;;;;;;6.86;87.71;103107.25;2073341;28;45917;-64
2021/12/19 03:45:52;;;;;;;14.68;4.85;;;;;;;6.90;86.72;103097.59;2080034;28;46550;-64
2021/12/19 03:46:54;;;;;;;14.40;4.90;;;;;;;6.96;86.87;103095.09;2081050;28;27111;-64
2021/12/19 03:47:56;;;;;;;14.98;4.45;;;;;;;6.95;86.82;103095.97;2080211;28;45009;-64
2021/12/19 03:48:59;;;;;;;12.55;4.25;;;;;;;6.94;86.03;103100.38;2071371;28;46119;-64
2021/12/19 03:50:03;;;;;;;12.38;3.92;;;;;;;6.95;86.07;103110.16;2071711;28;36849;-65
2021/12/19 03:51:10;;;;;;;12.30;3.83;;;;;;;6.97;86.64;103095.13;2071469;28;44439;-63
2021/12/19 03:52:11;;;;;;;14.82;4.53;;;;;;;6.93;86.31;103110.97;2072455;28;43693;-64
2021/12/19 03:53:16;;;;;;;14.75;4.07;;;;;;;6.96;87.66;103113.72;2080146;28;45881;-64
2021/12/19 03:54:18;;;;;;;11.27;4.60;;;;;;;6.97;86.80;103119.09;2080420;28;43449;-64
2021/12/19 03:55:25;;;;;;;12.77;4.05;;;;;;;6.91;86.42;103110.03;2080423;28;45547;-64
2021/12/19 03:56:27;;;;;;;13.23;4.00;;;;;;;6.94;86.95;103112.78;2070977;28;46618;-64
2021/12/19 03:57:29;;;;;;;13.65;3.70;;;;;;;6.92;86.28;103110.06;2071732;28;42147;-66
2021/12/19 03:58:30;;;;;;;13.07;3.95;;;;;;;6.91;86.33;103107.38;2079991;28;44102;-64
2021/12/19 03:59:32;;;;;;;11.57;3.38;;;;;;;6.89;86.51;103107.31;2080458;28;44635;-66
2021/12/19 04:00:35;;;;;;;11.13;3.83;;;;;;;6.95;86.76;103088.88;2080101;28;45136;-64
2021/12/19 04:01:37;;;;;;;12.77;3.95;;;;;;;6.92;86.49;103098.53;2080290;28;46461;-63
2021/12/19 04:02:39;;;;;;;12.50;4.05;;;;;;;6.92;86.47;103102.09;2071185;28;42444;-63
2021/12/19 04:03:41;;;;;;;14.00;4.30;;;;;;;6.90;87.01;103093.16;2071687;28;28451;-64
2021/12/19 04:04:43;;;;;;;18.35;4.13;;;;;;;6.88;86.44;103100.22;2080078;28;45907;-64
2021/12/19 04:05:50;;;;;;;14.73;4.25;;;;;;;6.88;87.04;103093.13;2080081;28;44100;-64
2021/12/19 04:06:52;;;;;;;12.30;4.00;;;;;;;6.89;86.59;103088.69;2079761;28;46366;-65
2021/12/19 04:07:54;;;;;;;11.32;3.80;;;;;;;6.90;87.32;103093.16;2071528;28;45058;-66
2021/12/19 04:08:56;;;;;;;17.48;3.90;;;;;;;6.87;86.55;103096.66;2071319;28;44190;-64
2021/12/19 04:09:58;;;;;;;12.70;3.40;;;;;;;6.91;86.60;103094.06;2080155;28;46233;-64
2021/12/19 04:11:03;;;;;;;13.00;3.88;;;;;;;6.88;86.65;103093.13;2079848;28;43745;-64
2021/12/19 04:12:05;;;;;;;9.05;3.10;;;;;;;6.85;86.99;103090.34;2080138;28;44456;-64
2021/12/19 04:13:07;;;;;;;11.82;3.22;;;;;;;6.88;86.67;103085.13;2080420;28;30126;-64
2021/12/19 04:14:09;;;;;;;9.50;3.10;;;;;;;6.89;87.25;103078.03;2079925;28;45131;-64
2021/12/19 04:15:12;;;;;;;11.43;2.88;;;;;;;6.87;87.56;103083.34;2080106;28;46410;-64
2021/12/19 04:16:14;;;;;;;13.57;3.55;;;;;;;6.81;87.04;103085.81;2071210;28;43745;-64
2021/12/19 04:17:16;;;;;;;15.15;3.40;;;;;;;6.84;86.96;103077.91;2071480;28;45629;-63
2021/12/19 04:18:18;;;;;;;13.77;3.13;;;;;;;6.81;87.18;103079.59;2080030;28;44814;-64
2021/12/19 04:19:20;;;;;;;10.85;2.88;;;;;;;6.82;87.23;103076.06;2079794;28;45498;-64
2021/12/19 04:20:22;;;;;;;13.60;2.88;;;;;;;6.77;87.21;103073.28;2080373;28;28590;-63
2021/12/19 04:21:26;;;;;;;8.23;2.50;;;;;;;6.80;87.71;103072.47;2079661;28;43397;-64
2021/12/19 04:22:28;;;;;;;11.40;2.50;;;;;;;6.79;87.75;103071.56;2070861;28;45886;-64
2021/12/19 04:23:31;;;;;;;12.65;3.25;;;;;;;6.83;88.33;103075.22;2071561;28;45651;-64
2021/12/19 04:24:32;;;;;;;12.18;3.05;;;;;;;6.77;87.48;103075.97;2079546;28;44300;-64
2021/12/19 04:25:34;;;;;;;13.60;3.10;;;;;;;6.75;87.81;103075.00;2080065;28;46771;-64
2021/12/19 04:26:36;;;;;;;12.40;2.78;;;;;;;6.76;88.36;103074.13;2079903;28;42342;-64
2021/12/19 04:27:38;;;;;;;13.05;2.47;;;;;;;6.79;88.51;103074.22;2079798;28;44285;-63
2021/12/19 04:28:40;;;;;;;14.57;2.90;;;;;;;6.81;87.95;103068.94;2080400;28;35684;-64
2021/12/19 04:29:41;;;;;;;13.50;3.22;;;;;;;6.80;88.06;103076.06;2080176;28;45424;-64
2021/12/19 04:30:43;;;;;;;17.23;2.88;;;;;;;6.77;88.11;103065.31;2079957;28;43343;-64
2021/12/19 04:31:45;;;;;;;12.07;2.88;;;;;;;6.80;87.98;103061.81;2080230;28;44720;-64
2021/12/19 04:33:06;;;;;;;13.35;2.92;;;;;;;6.74;87.90;103059.88;2079659;28;44131;-64
2021/12/19 04:34:09;;;;;;;17.73;2.92;;;;;;;6.76;88.25;103060.81;2079455;28;45479;-64
2021/12/19 04:35:16;;;;;;;9.00;2.38;;;;;;;6.78;88.38;103056.44;2081256;28;20095;-64
2021/12/19 04:36:26;;;;;;;16.52;3.10;;;;;;;6.75;88.31;103051.06;2080322;28;29906;-64
2021/12/19 04:39:07;;;;;;;11.68;2.28;;;;;;;6.72;88.54;103055.41;2079318;28;43960;-64
2021/12/19 04:40:13;;;;;;;11.40;2.67;;;;;;;6.76;88.73;103057.28;2079854;28;46604;-64
2021/12/19 04:43:36;;;;;;;15.27;2.95;;;;;;;6.75;88.75;103060.78;2079747;28;45609;-64
2021/12/19 04:51:35;;;;;;;10.48;3.10;;;;;;;6.73;89.03;103062.50;2062640;28;44526;-65
2021/12/19 04:52:58;;;;;;;15.98;3.22;;;;;;;6.68;89.08;103049.97;2062464;28;44109;-64
2021/12/19 04:57:49;;;;;;;17.70;3.20;;;;;;;6.69;89.13;103046.47;2079666;28;44546;-65
2021/12/19 04:59:12;;;;;;;10.80;2.80;;;;;;;6.70;90.14;103052.69;2079628;28;43485;-65
2021/12/19 05:00:20;;;;;;;15.20;2.97;;;;;;;6.67;89.45;103058.81;2079989;28;45908;-65
2021/12/19 05:02:04;;;;;;;12.07;2.88;;;;;;;6.67;89.70;103049.94;2080085;28;46015;-64
2021/12/19 05:03:05;;;;;;;17.88;3.15;;;;;;;6.64;89.71;103050.75;2079865;28;44114;-65
2021/12/19 05:04:34;;;;;;;13.48;2.67;;;;;;;6.65;90.02;103047.22;2080088;28;44932;-65
2021/12/19 05:05:58;;;;;;;19.60;3.15;;;;;;;6.65;90.13;103041.91;2079778;28;43621;-65
2021/12/19 05:15:05;;;;;;;8.75;1.95;;;;;;;6.69;89.39;103037.56;2081508;28;37450;-64
2021/12/19 05:16:07;;;;;;;15.48;3.33;;;;;;;6.67;89.35;103039.28;2081313;28;45514;-65
2021/12/19 05:17:16;;;;;;;15.68;3.05;;;;;;;6.69;89.48;103045.53;2081236;28;46497;-65
2021/12/19 05:18:19;;;;;;;16.58;3.50;;;;;;;6.68;89.39;103043.75;2081648;28;29417;-64
2021/12/19 05:20:28;;;;;;;15.23;3.63;;;;;;;6.67;89.79;103047.28;2081334;28;46117;-64
2021/12/19 05:21:33;;;;;;;15.13;3.47;;;;;;;6.64;89.28;103036.53;2080825;28;44242;-65
2021/12/19 05:22:41;;;;;;;12.88;3.13;;;;;;;6.66;89.43;103041.06;2081173;28;45591;-64
2021/12/19 05:25:07;;;;;;;12.93;3.42;;;;;;;6.65;89.47;103027.69;2081284;28;44160;-64
2021/12/19 05:26:14;;;;;;;15.07;3.40;;;;;;;6.67;89.51;103020.66;2080590;28;44001;-64
2021/12/19 05:27:15;;;;;;;12.57;3.53;;;;;;;6.64;89.26;103024.16;2072323;28;42365;-64
2021/12/19 05:28:18;;;;;;;9.80;3.10;;;;;;;6.67;90.00;103024.19;2073823;28;20053;-64
2021/12/19 05:29:19;;;;;;;15.27;3.30;;;;;;;6.68;89.66;103028.69;2081298;28;45967;-65
2021/12/19 05:30:23;;;;;;;12.90;3.60;;;;;;;6.68;89.99;103023.34;2080666;28;44145;-64
2021/12/19 05:31:25;;;;;;;13.02;3.53;;;;;;;6.65;89.43;103023.28;2081059;28;44962;-64
2021/12/19 05:32:26;;;;;;;11.27;3.58;;;;;;;6.66;90.10;103025.09;2080935;28;43510;-64
2021/12/19 05:33:28;;;;;;;11.15;3.58;;;;;;;6.69;89.98;103026.91;2081188;28;44295;-64
2021/12/19 05:34:30;;;;;;;17.23;4.07;;;;;;;6.67;89.33;103029.53;2080840;28;44779;-64
2021/12/19 05:45:59;;;;;;;13.00;3.75;;;;;;;6.74;88.53;103029.72;2081084;28;44046;-64
2021/12/19 05:47:02;;;;;;;12.40;3.47;;;;;;;6.75;88.93;103027.09;2081276;28;45924;-64
2021/12/19 05:48:04;;;;;;;8.10;3.30;;;;;;;6.77;89.54;103032.47;2081198;28;44429;-64
2021/12/19 05:49:07;;;;;;;15.02;4.05;;;;;;;6.71;88.71;103024.28;2080424;28;45488;-64
2021/12/19 05:50:10;;;;;;;14.10;3.97;;;;;;;6.68;88.47;103033.13;2081022;28;44561;-64
2021/12/19 05:51:11;;;;;;;11.70;3.30;;;;;;;6.66;88.77;103025.09;2081081;28;45274;-64
2021/12/19 05:52:13;;;;;;;13.30;3.53;;;;;;;6.69;88.88;103034.91;2080974;28;46658;-65
2021/12/19 05:53:15;;;;;;;12.82;3.83;;;;;;;6.69;89.38;103032.22;2080867;28;43481;-64
2021/12/19 05:54:17;;;;;;;15.02;4.00;;;;;;;6.70;89.65;103023.41;2071775;28;44276;-65
2021/12/19 05:55:20;;;;;;;15.60;3.92;;;;;;;6.69;89.54;103024.25;2072556;28;44724;-64